createdAt,value
2023-03-06T00:02:22.762Z,12.27
2023-03-06T00:04:51.091Z,14.13
2023-03-06T00:07:21.439Z,11.97
2023-03-06T00:09:49.724Z,13.80
2023-03-06T00:12:18.058Z,12.00
2023-03-06T00:14:46.475Z,13.80
2023-03-06T00:17:14.955Z,12.30
2023-03-06T00:19:44.819Z,11.40
2023-03-06T00:22:15.506Z,12.97
2023-03-06T00:24:44.392Z,15.20
2023-03-06T00:27:12.878Z,11.60
2023-03-06T00:29:41.257Z,14.53
2023-03-06T00:32:09.840Z,11.67
2023-03-06T00:34:38.330Z,12.40
2023-03-06T00:37:08.075Z,16.97
2023-03-06T00:39:36.990Z,13.23
2023-03-06T00:42:05.386Z,14.23
2023-03-06T00:44:33.789Z,14.30
2023-03-06T00:47:02.101Z,12.10
2023-03-06T00:49:30.564Z,11.97
2023-03-06T00:51:59.357Z,13.83
2023-03-06T00:54:29.216Z,13.20
2023-03-06T00:56:57.895Z,13.00
2023-03-06T00:59:27.602Z,13.80
2023-03-06T01:01:56.208Z,12.73
2023-03-06T01:04:24.605Z,12.03
2023-03-06T01:06:53.004Z,12.73
2023-03-06T01:09:21.396Z,14.03
2023-03-06T01:11:51.110Z,13.10
2023-03-06T01:14:20.227Z,12.43
2023-03-06T01:16:48.580Z,13.07
2023-03-06T01:19:16.959Z,12.30
2023-03-06T01:21:45.345Z,11.13
2023-03-06T01:24:13.719Z,11.67
2023-03-06T01:26:42.201Z,16.03
2023-03-06T01:29:12.062Z,14.43
2023-03-06T01:31:40.471Z,14.83
2023-03-06T01:34:08.822Z,12.13
2023-03-06T01:36:37.202Z,11.30
2023-03-06T01:39:05.676Z,10.27
2023-03-06T01:41:34.146Z,13.80
2023-03-06T01:44:02.600Z,12.57
2023-03-06T01:46:34.501Z,14.13
2023-03-06T01:49:05.134Z,11.30
2023-03-06T01:51:35.408Z,12.03
2023-03-06T01:54:06.815Z,11.93
2023-03-06T01:56:35.279Z,11.77
2023-03-06T01:59:04.140Z,11.73
2023-03-06T02:01:34.863Z,11.60
2023-03-06T02:04:03.398Z,11.37
2023-03-06T02:06:31.814Z,16.00
2023-03-06T02:09:00.305Z,11.67
2023-03-06T02:11:28.837Z,14.13
2023-03-06T02:13:57.458Z,11.00
2023-03-06T02:16:27.080Z,14.00
2023-03-06T02:18:57.251Z,10.70
2023-03-06T02:21:27.216Z,11.40
2023-03-06T02:24:03.790Z,11.83
2023-03-06T02:26:34.744Z,14.23
2023-03-06T02:29:03.425Z,11.87
2023-03-06T02:31:32.799Z,11.53
2023-03-06T02:34:05.722Z,10.97
2023-03-06T02:36:35.476Z,11.07
2023-03-06T02:39:04.058Z,10.63
2023-03-06T02:41:33.805Z,11.07
2023-03-06T02:44:02.196Z,12.20
2023-03-06T02:46:30.832Z,9.20
2023-03-06T02:48:59.151Z,11.80
2023-03-06T02:51:27.421Z,13.67
2023-03-06T02:53:55.937Z,11.70
2023-03-06T02:56:24.332Z,12.00
2023-03-06T02:58:54.122Z,13.63
2023-03-06T03:01:23.172Z,12.73
2023-03-06T03:03:51.639Z,11.07
2023-03-06T03:06:20.045Z,11.43
2023-03-06T03:08:48.509Z,11.20
2023-03-06T03:11:16.876Z,11.00
2023-03-06T03:13:45.333Z,12.43
2023-03-06T03:16:16.445Z,11.00
2023-03-06T03:18:47.864Z,10.80
2023-03-06T03:21:16.741Z,12.07
2023-03-06T03:23:45.100Z,12.70
2023-03-06T03:26:15.443Z,14.00
2023-03-06T03:28:44.016Z,14.70
2023-03-06T03:31:13.497Z,12.00
2023-03-06T03:33:43.599Z,10.40
2023-03-06T03:36:12.026Z,10.20
2023-03-06T03:38:40.483Z,11.57
2023-03-06T03:41:08.820Z,14.70
2023-03-06T03:43:37.157Z,11.80
2023-03-06T03:46:06.168Z,11.00
2023-03-06T03:48:34.579Z,11.07
2023-03-06T03:51:11.145Z,9.57
2023-03-06T03:53:39.844Z,11.47
2023-03-06T03:56:08.429Z,10.87
2023-03-06T03:58:36.803Z,12.43
2023-03-06T04:01:05.316Z,13.73
2023-03-06T04:03:33.873Z,12.90
2023-03-06T04:06:02.842Z,9.77
2023-03-06T04:08:32.858Z,13.67
2023-03-06T04:11:01.237Z,12.37
2023-03-06T04:13:29.565Z,13.73
2023-03-06T04:15:59.725Z,11.00
2023-03-06T04:18:28.537Z,11.33
2023-03-06T04:20:56.952Z,13.00
2023-03-06T04:23:25.343Z,12.63
2023-03-06T04:25:55.180Z,10.47
2023-03-06T04:28:23.665Z,9.93
2023-03-06T04:30:52.057Z,10.60
2023-03-06T04:33:20.598Z,12.20
2023-03-06T04:35:49.116Z,11.93
2023-03-06T04:38:17.558Z,11.23
2023-03-06T04:40:46.111Z,11.70
2023-03-06T04:43:16.152Z,10.27
2023-03-06T04:45:44.788Z,11.30
2023-03-06T04:48:15.220Z,12.93
2023-03-06T04:50:43.598Z,10.53
2023-03-06T04:53:12.028Z,12.67
2023-03-06T04:55:40.451Z,13.53
2023-03-06T04:58:08.945Z,10.80
2023-03-06T05:00:38.861Z,11.40
2023-03-06T05:03:07.277Z,10.40
2023-03-06T05:05:35.654Z,11.80
2023-03-06T05:08:04.021Z,11.30
2023-03-06T05:10:32.566Z,12.37
2023-03-06T05:13:00.877Z,11.80
2023-03-06T05:15:29.257Z,12.83
2023-03-06T05:17:59.051Z,14.73
2023-03-06T05:20:28.640Z,12.00
2023-03-06T05:22:57.415Z,12.30
2023-03-06T05:25:25.800Z,10.90
2023-03-06T05:27:54.219Z,13.10
2023-03-06T05:30:23.271Z,11.30
2023-03-06T05:32:51.912Z,11.87
2023-03-06T05:35:22.621Z,11.73
2023-03-06T05:37:51.238Z,11.60
2023-03-06T05:40:20.433Z,12.53
2023-03-06T05:42:48.815Z,12.13
2023-03-06T05:45:17.251Z,12.50
2023-03-06T05:47:45.777Z,12.03
2023-03-06T05:50:14.968Z,13.13
2023-03-06T05:52:45.291Z,13.20
2023-03-06T05:55:14.140Z,12.80
2023-03-06T05:57:42.462Z,11.10
2023-03-06T06:00:11.921Z,12.10
2023-03-06T06:02:40.361Z,11.47
2023-03-06T06:05:11.778Z,12.80
2023-03-06T06:07:41.192Z,13.60
2023-03-06T06:10:12.914Z,10.60
2023-03-06T06:12:41.406Z,15.30
2023-03-06T06:15:10.625Z,11.63
2023-03-06T06:17:38.945Z,12.07
2023-03-06T06:20:07.696Z,14.47
2023-03-06T06:22:37.883Z,14.73
2023-03-06T06:25:06.788Z,11.90
2023-03-06T06:27:36.718Z,10.40
2023-03-06T06:30:05.406Z,12.10
2023-03-06T06:32:33.879Z,15.37
2023-03-06T06:35:02.364Z,11.80
2023-03-06T06:37:30.782Z,12.27
2023-03-06T06:39:59.330Z,13.00
2023-03-06T06:42:35.097Z,11.57
2023-03-06T06:45:07.309Z,11.90
2023-03-06T06:47:38.317Z,12.73
2023-03-06T06:50:07.131Z,13.60
2023-03-06T06:52:35.616Z,11.27
2023-03-06T06:55:04.076Z,14.87
2023-03-06T06:57:32.405Z,13.53
2023-03-06T07:00:00.742Z,11.67
2023-03-06T07:02:32.196Z,12.73
2023-03-06T07:05:04.649Z,14.43
2023-03-06T07:07:35.425Z,12.43
2023-03-06T07:10:05.546Z,12.70
2023-03-06T07:12:35.275Z,13.30
2023-03-06T07:15:03.875Z,13.03
2023-03-06T07:17:33.783Z,12.20
2023-03-06T07:20:02.298Z,17.50
2023-03-06T07:22:41.448Z,36.33
2023-03-06T07:25:17.006Z,19.77
2023-03-06T07:27:51.045Z,39.37
2023-03-06T07:30:21.995Z,15.33
2023-03-06T07:32:53.649Z,13.80
2023-03-06T07:35:22.545Z,12.77
2023-03-06T07:37:51.222Z,15.60
2023-03-06T07:40:20.750Z,18.13
2023-03-06T07:42:49.165Z,15.73
2023-03-06T07:45:17.561Z,14.33
2023-03-06T07:47:45.925Z,12.77
2023-03-06T07:50:15.783Z,12.50
2023-03-06T07:52:44.199Z,15.10
2023-03-06T07:55:13.194Z,14.60
2023-03-06T07:57:41.738Z,15.70
2023-03-06T08:00:12.838Z,15.17
2023-03-06T08:02:41.894Z,16.30
2023-03-06T08:05:11.153Z,14.50
2023-03-06T08:07:40.887Z,15.20
2023-03-06T08:10:09.689Z,14.13
2023-03-06T08:12:38.072Z,14.60
2023-03-06T08:15:06.942Z,16.40
2023-03-06T08:17:35.360Z,14.87
2023-03-06T08:20:03.715Z,17.43
2023-03-06T08:22:32.124Z,17.13
2023-03-06T08:25:01.767Z,15.30
2023-03-06T08:27:30.269Z,14.20
2023-03-06T08:29:58.821Z,18.33
2023-03-06T08:32:27.634Z,20.10
2023-03-06T08:34:56.171Z,17.47
2023-03-06T08:37:24.613Z,16.17
2023-03-06T08:39:53.080Z,14.37
2023-03-06T08:42:22.824Z,15.60
2023-03-06T08:44:51.142Z,16.73
2023-03-06T08:47:19.521Z,15.27
2023-03-06T08:49:47.835Z,14.87
2023-03-06T08:52:17.076Z,13.80
2023-03-06T08:54:45.471Z,17.07
2023-03-06T08:57:13.885Z,15.77
2023-03-06T08:59:43.629Z,16.80
2023-03-06T09:02:15.275Z,15.47
2023-03-06T09:04:44.034Z,16.47
2023-03-06T09:07:12.574Z,16.00
2023-03-06T09:09:40.993Z,13.87
2023-03-06T09:12:09.399Z,16.30
2023-03-06T09:14:37.704Z,15.50
2023-03-06T09:17:07.512Z,17.20
2023-03-06T09:19:35.887Z,15.03
2023-03-06T09:22:04.246Z,14.73
2023-03-06T09:24:32.600Z,14.83
2023-03-06T09:27:01.761Z,17.90
2023-03-06T09:29:30.334Z,15.53
2023-03-06T09:31:58.746Z,16.80
2023-03-06T09:34:28.682Z,17.50
2023-03-06T09:36:57.699Z,14.77
2023-03-06T09:39:27.217Z,14.67
2023-03-06T09:41:56.882Z,15.90
2023-03-06T09:44:27.672Z,13.60
2023-03-06T09:47:10.607Z,13.10
2023-03-06T09:49:55.587Z,13.97
2023-03-06T09:52:35.127Z,14.30
2023-03-06T09:55:11.509Z,12.50
2023-03-06T09:57:43.165Z,12.93
2023-03-06T10:00:15.798Z,12.93
2023-03-06T10:02:46.270Z,13.40
2023-03-06T10:05:18.821Z,11.10
2023-03-06T10:07:48.792Z,14.33
2023-03-06T10:10:19.045Z,11.40
2023-03-06T10:12:50.083Z,12.20
2023-03-06T10:15:19.968Z,11.30
2023-03-06T10:17:48.464Z,13.50
2023-03-06T10:20:19.828Z,11.60
2023-03-06T10:23:01.005Z,12.00
2023-03-06T10:25:33.899Z,14.30
2023-03-06T10:28:05.234Z,12.00
2023-03-06T10:30:40.628Z,11.63
2023-03-06T10:33:10.758Z,11.93
2023-03-06T10:35:47.435Z,12.33
2023-03-06T10:38:20.466Z,15.27
2023-03-06T10:40:53.011Z,14.07
2023-03-06T10:43:21.378Z,12.40
2023-03-06T10:45:50.338Z,16.20
2023-03-06T10:48:21.039Z,14.60
2023-03-06T10:50:50.845Z,12.77
2023-03-06T10:53:23.486Z,11.80
2023-03-06T10:55:57.206Z,11.27
2023-03-06T10:58:26.859Z,13.40
2023-03-06T11:01:07.016Z,12.10
2023-03-06T11:03:36.308Z,13.60
2023-03-06T11:06:12.936Z,12.77
2023-03-06T11:08:42.554Z,12.90
2023-03-06T11:11:13.826Z,12.07
2023-03-06T11:13:43.102Z,13.17
2023-03-06T11:16:19.285Z,13.87
2023-03-06T11:18:57.256Z,13.87
2023-03-06T11:21:31.046Z,13.63
2023-03-06T11:24:03.365Z,17.93
2023-03-06T11:26:37.844Z,16.70
2023-03-06T11:29:14.636Z,13.20
2023-03-06T11:31:46.529Z,12.83
2023-03-06T11:34:18.255Z,15.97
2023-03-06T11:36:49.941Z,11.93
2023-03-06T11:39:21.623Z,14.37
2023-03-06T11:41:54.508Z,16.37
2023-03-06T11:44:27.977Z,36.07
2023-03-06T11:47:03.294Z,21.70
2023-03-06T11:49:35.016Z,19.83
2023-03-06T11:52:07.467Z,17.53
2023-03-06T11:54:35.976Z,23.37
2023-03-06T11:57:06.277Z,26.87
2023-03-06T11:59:55.588Z,23.73
2023-03-06T12:02:29.023Z,18.07
2023-03-06T12:05:03.223Z,15.33
2023-03-06T12:07:34.743Z,15.83
2023-03-06T12:10:08.389Z,14.50
2023-03-06T12:12:46.622Z,15.37
2023-03-06T12:15:20.716Z,13.67
2023-03-06T12:17:58.200Z,14.83
2023-03-06T12:20:35.408Z,14.57
2023-03-06T12:23:15.464Z,13.23
2023-03-06T12:25:45.696Z,13.37
2023-03-06T12:28:46.966Z,17.70
2023-03-06T12:31:24.987Z,12.80
2023-03-06T12:33:58.467Z,14.47
2023-03-06T12:36:31.626Z,13.47
2023-03-06T12:39:10.417Z,12.93
2023-03-06T12:41:45.052Z,13.73
2023-03-06T12:44:24.961Z,13.63
2023-03-06T12:46:55.920Z,15.27
2023-03-06T12:49:32.624Z,15.27
2023-03-06T12:52:02.065Z,13.10
2023-03-06T12:54:32.890Z,14.20
2023-03-06T12:57:01.861Z,13.70
2023-03-06T12:59:40.381Z,15.40
2023-03-06T13:02:19.109Z,15.87
2023-03-06T13:04:58.271Z,14.03
2023-03-06T13:07:33.392Z,15.00
2023-03-06T13:10:09.716Z,14.47
2023-03-06T13:12:43.567Z,13.40
2023-03-06T13:15:29.266Z,15.40
2023-03-06T13:17:57.797Z,16.40
2023-03-06T13:20:35.608Z,16.60
2023-03-06T13:23:22.507Z,15.77
2023-03-06T13:25:52.389Z,17.07
2023-03-06T13:28:24.947Z,22.00
2023-03-06T13:30:53.757Z,15.00
2023-03-06T13:33:43.307Z,14.77
2023-03-06T13:36:38.325Z,19.60
2023-03-06T13:39:09.052Z,16.30
2023-03-06T13:41:42.393Z,26.10
2023-03-06T13:44:37.662Z,25.97
2023-03-06T13:47:08.382Z,16.73
2023-03-06T13:49:37.020Z,20.83
2023-03-06T13:52:08.108Z,19.33
2023-03-06T13:54:43.619Z,17.47
2023-03-06T13:57:20.378Z,19.33
2023-03-06T14:00:19.059Z,21.30
2023-03-06T14:03:01.809Z,16.10
2023-03-06T14:05:35.815Z,21.40
2023-03-06T14:08:05.997Z,19.90
2023-03-06T14:10:36.056Z,22.00
2023-03-06T14:13:07.288Z,24.60
2023-03-06T14:15:44.605Z,16.30
2023-03-06T14:18:18.070Z,24.67
2023-03-06T14:20:47.664Z,53.30
2023-03-06T14:23:17.329Z,30.97
2023-03-06T14:25:46.941Z,25.27
2023-03-06T14:28:32.956Z,15.07
2023-03-06T14:31:03.656Z,17.97
2023-03-06T14:33:33.347Z,19.77
2023-03-06T14:36:03.479Z,12.57
2023-03-06T14:38:34.318Z,18.90
2023-03-06T14:41:03.426Z,12.33
2023-03-06T14:43:32.386Z,13.80
2023-03-06T14:46:01.669Z,19.40
2023-03-06T14:48:40.786Z,29.50
2023-03-06T14:51:14.056Z,29.67
2023-03-06T14:53:44.423Z,16.13
2023-03-06T14:56:17.118Z,23.30
2023-03-06T14:58:50.542Z,11.90
2023-03-06T15:01:24.253Z,15.13
2023-03-06T15:03:54.958Z,14.47
2023-03-06T15:06:24.743Z,15.63
2023-03-06T15:08:56.810Z,15.47
2023-03-06T15:11:25.243Z,15.97
2023-03-06T15:14:04.116Z,16.20
2023-03-06T15:16:33.576Z,16.77
2023-03-06T15:19:04.353Z,23.70
2023-03-06T15:21:34.469Z,18.50
2023-03-06T15:24:03.103Z,17.13
2023-03-06T15:26:33.110Z,41.50
2023-03-06T15:29:09.364Z,23.27
2023-03-06T15:31:39.539Z,37.70
2023-03-06T15:34:25.472Z,34.93
2023-03-06T15:36:55.368Z,18.73
2023-03-06T15:39:28.365Z,21.07
2023-03-06T15:41:58.440Z,17.80
2023-03-06T15:44:27.098Z,21.57
2023-03-06T15:47:07.685Z,13.97
2023-03-06T15:49:38.376Z,20.87
2023-03-06T15:52:06.930Z,22.60
2023-03-06T15:54:35.549Z,13.50
2023-03-06T15:57:04.860Z,15.67
2023-03-06T15:59:33.867Z,16.87
2023-03-06T16:02:04.363Z,22.27
2023-03-06T16:04:32.940Z,18.17
2023-03-06T16:07:02.687Z,14.83
2023-03-06T16:09:31.019Z,14.10
2023-03-06T16:11:59.545Z,13.30
2023-03-06T16:14:28.078Z,15.70
2023-03-06T16:16:56.868Z,14.27
2023-03-06T16:19:27.617Z,14.30
2023-03-06T16:21:57.099Z,16.73
2023-03-06T16:24:27.117Z,12.13
2023-03-06T16:26:56.168Z,12.43
2023-03-06T16:29:25.458Z,12.73
2023-03-06T16:31:53.820Z,22.73
2023-03-06T16:34:22.174Z,11.97
2023-03-06T16:36:50.930Z,21.53
2023-03-06T16:39:20.007Z,15.37
2023-03-06T16:41:50.372Z,14.23
2023-03-06T16:44:18.803Z,17.90
2023-03-06T16:46:47.797Z,15.43
2023-03-06T16:49:17.946Z,12.27
2023-03-06T16:51:46.408Z,12.90
2023-03-06T16:54:14.834Z,17.77
2023-03-06T16:56:43.211Z,15.03
2023-03-06T16:59:13.695Z,15.47
2023-03-06T17:01:43.267Z,13.67
2023-03-06T17:04:11.779Z,21.07
2023-03-06T17:06:41.755Z,15.80
2023-03-06T17:09:10.845Z,11.90
2023-03-06T17:11:39.700Z,12.00
2023-03-06T17:14:08.204Z,16.50
2023-03-06T17:16:40.312Z,14.00
2023-03-06T17:19:08.904Z,15.87
2023-03-06T17:21:38.573Z,22.40
2023-03-06T17:24:07.404Z,18.80
2023-03-06T17:26:36.578Z,16.57
2023-03-06T17:29:06.915Z,32.90
2023-03-06T17:31:35.568Z,17.70
2023-03-06T17:34:05.523Z,23.90
2023-03-06T17:36:34.198Z,21.30
2023-03-06T17:39:04.152Z,17.60
2023-03-06T17:41:34.135Z,19.67
2023-03-06T17:44:03.461Z,21.43
2023-03-06T17:46:32.507Z,18.63
2023-03-06T17:49:00.931Z,18.10
2023-03-06T17:51:30.865Z,15.80
2023-03-06T17:53:59.262Z,16.17
2023-03-06T17:56:28.049Z,19.07
2023-03-06T17:58:56.632Z,19.60
2023-03-06T18:01:27.581Z,22.50
2023-03-06T18:03:56.265Z,56.90
2023-03-06T18:06:27.623Z,57.87
2023-03-06T18:08:57.583Z,43.33
2023-03-06T18:11:26.018Z,26.13
2023-03-06T18:13:54.428Z,23.97
2023-03-06T18:16:23.596Z,19.10
2023-03-06T18:18:55.468Z,14.83
2023-03-06T18:21:26.611Z,11.77
2023-03-06T18:24:00.784Z,12.80
2023-03-06T18:26:30.212Z,11.53
2023-03-06T18:29:01.365Z,12.00
2023-03-06T18:31:33.766Z,11.00
2023-03-06T18:34:03.854Z,11.33
2023-03-06T18:36:33.516Z,12.60
2023-03-06T18:39:03.878Z,13.10
2023-03-06T18:41:34.479Z,13.43
2023-03-06T18:44:03.422Z,11.60
2023-03-06T18:46:33.762Z,11.97
2023-03-06T18:49:08.409Z,11.63
2023-03-06T18:51:41.147Z,10.50
2023-03-06T18:54:13.879Z,14.40
2023-03-06T18:56:44.231Z,11.73
2023-03-06T18:59:14.363Z,11.03
2023-03-06T19:01:44.627Z,11.40
2023-03-06T19:04:13.520Z,12.43
2023-03-06T19:06:42.686Z,10.60
2023-03-06T19:09:12.555Z,15.60
2023-03-06T19:11:42.675Z,12.20
2023-03-06T19:14:11.033Z,11.03
2023-03-06T19:16:39.498Z,10.70
2023-03-06T19:19:07.917Z,12.10
2023-03-06T19:21:36.421Z,12.27
2023-03-06T19:24:06.987Z,13.13
2023-03-06T19:26:36.671Z,12.17
2023-03-06T19:29:05.035Z,11.57
2023-03-06T19:31:33.441Z,10.57
2023-03-06T19:34:01.881Z,11.60
2023-03-06T19:36:33.887Z,9.73
2023-03-06T19:39:03.671Z,13.50
2023-03-06T19:41:32.365Z,11.70
2023-03-06T19:44:04.974Z,11.10
2023-03-06T19:46:33.441Z,11.00
2023-03-06T19:49:02.773Z,12.03
2023-03-06T19:51:31.462Z,10.83
2023-03-06T19:53:59.945Z,10.97
2023-03-06T19:56:31.757Z,11.87
2023-03-06T19:59:00.148Z,11.43
2023-03-06T20:01:30.363Z,9.70
2023-03-06T20:03:59.910Z,13.50
2023-03-06T20:06:29.729Z,11.77
2023-03-06T20:08:58.129Z,13.30
2023-03-06T20:11:27.199Z,12.30
2023-03-06T20:13:55.514Z,10.73
2023-03-06T20:16:23.868Z,10.47
2023-03-06T20:18:53.645Z,10.80
2023-03-06T20:21:23.319Z,10.13
2023-03-06T20:23:52.911Z,13.00
2023-03-06T20:26:21.753Z,10.70
2023-03-06T20:28:50.191Z,13.07
2023-03-06T20:31:19.676Z,12.47
2023-03-06T20:33:48.831Z,10.93
2023-03-06T20:36:19.672Z,11.33
2023-03-06T20:38:48.097Z,11.20
2023-03-06T20:41:16.680Z,12.30
2023-03-06T20:43:45.083Z,11.20
2023-03-06T20:46:14.128Z,13.00
2023-03-06T20:48:42.664Z,11.90
2023-03-06T20:51:15.072Z,11.27
2023-03-06T20:53:44.707Z,11.17
2023-03-06T20:56:13.733Z,9.50
2023-03-06T20:58:42.114Z,11.50
2023-03-06T21:01:10.431Z,11.57
2023-03-06T21:03:38.909Z,11.57
2023-03-06T21:06:07.558Z,13.13
2023-03-06T21:08:35.919Z,12.57
2023-03-06T21:11:05.674Z,12.60
2023-03-06T21:13:33.958Z,11.47
2023-03-06T21:16:05.377Z,11.60
2023-03-06T21:18:33.784Z,12.50
2023-03-06T21:21:06.059Z,11.67
2023-03-06T21:23:34.426Z,11.93
2023-03-06T21:26:02.916Z,11.60
2023-03-06T21:28:32.820Z,11.73
2023-03-06T21:31:01.790Z,12.23
2023-03-06T21:33:30.456Z,12.30
2023-03-06T21:35:58.842Z,10.60
2023-03-06T21:38:27.266Z,12.07
2023-03-06T21:40:56.052Z,12.00
2023-03-06T21:43:24.638Z,11.70
2023-03-06T21:45:58.137Z,12.10
2023-03-06T21:48:26.660Z,10.87
2023-03-06T21:50:55.047Z,12.17
2023-03-06T21:53:23.418Z,12.10
2023-03-06T21:55:51.808Z,12.37
2023-03-06T21:58:20.131Z,12.30
2023-03-06T22:00:48.586Z,11.17
2023-03-06T22:03:18.424Z,12.80
2023-03-06T22:05:46.879Z,10.57
2023-03-06T22:08:15.336Z,10.87
2023-03-06T22:10:43.763Z,13.00
2023-03-06T22:13:12.092Z,11.30
2023-03-06T22:15:40.533Z,12.60
2023-03-06T22:18:15.663Z,11.20
2023-03-06T22:20:45.522Z,12.07
2023-03-06T22:23:13.971Z,13.60
2023-03-06T22:25:42.491Z,13.30
2023-03-06T22:28:10.915Z,11.87
2023-03-06T22:30:39.200Z,11.30
2023-03-06T22:33:07.616Z,11.77
2023-03-06T22:35:36.005Z,11.20
2023-03-06T22:38:05.807Z,12.23
2023-03-06T22:40:34.824Z,10.47
2023-03-06T22:43:03.123Z,13.53
2023-03-06T22:45:34.325Z,14.00
2023-03-06T22:48:10.839Z,15.03
2023-03-06T22:50:39.325Z,11.97
2023-03-06T22:53:09.056Z,12.50
2023-03-06T22:55:37.412Z,12.40
2023-03-06T22:58:05.951Z,13.17
2023-03-06T23:00:34.318Z,11.37
2023-03-06T23:03:02.667Z,13.37
2023-03-06T23:05:31.078Z,13.47
2023-03-06T23:07:59.510Z,13.03
2023-03-06T23:10:29.188Z,13.07
2023-03-06T23:12:57.500Z,12.20
2023-03-06T23:15:25.948Z,10.80
2023-03-06T23:17:54.411Z,13.93
2023-03-06T23:20:23.045Z,14.90
2023-03-06T23:22:51.373Z,13.63
2023-03-06T23:25:19.854Z,14.73
2023-03-06T23:27:49.717Z,13.73
2023-03-06T23:30:18.352Z,13.27
2023-03-06T23:32:46.734Z,14.33
2023-03-06T23:35:15.219Z,11.57
2023-03-06T23:37:43.695Z,12.30
2023-03-06T23:40:13.707Z,12.80
2023-03-06T23:42:42.119Z,14.30
2023-03-06T23:45:12.984Z,14.40
2023-03-06T23:47:42.187Z,12.30
2023-03-06T23:50:11.249Z,13.23
2023-03-06T23:52:39.962Z,12.13
2023-03-06T23:55:08.908Z,12.37
2023-03-06T23:57:37.326Z,13.17
